Time;durP1;ratioP1;P1;durP2;ratioP2;P2;SDS_P1;SDS_P2;PMS_P1;PMS_P2;Temp;Humidity;BMP_temperature;BMP_pressure;BME280_temperature;BME280_humidity;BME280_pressure;Samples;Min_cycle;Max_cycle;Signal;HPM_P1;HPM_P2
2021/08/13 00:01:10;;;;;;;16.75;14.32;;;;;;;;;;5093753;28;20048;-78
2021/08/13 00:03:37;;;;;;;21.52;14.68;;;;;;;;;;5095098;28;20079;-80
2021/08/13 00:06:09;;;;;;;15.93;14.25;;;;;;;;;;5098361;28;20112;-80
2021/08/13 00:08:37;;;;;;;15.77;13.10;;;;;;;;;;5099861;28;20102;-79
2021/08/13 00:11:04;;;;;;;15.88;14.27;;;;;;;;;;5098368;28;20048;-79
2021/08/13 00:13:31;;;;;;;17.23;13.63;;;;;;;;;;5081257;28;20558;-79
2021/08/13 00:15:58;;;;;;;14.68;13.10;;;;;;;;;;5074216;28;20126;-78
2021/08/13 00:18:24;;;;;;;14.65;12.88;;;;;;;;;;5074359;28;20083;-79
2021/08/13 00:20:51;;;;;;;16.85;13.88;;;;;;;;;;5073737;28;20088;-79
2021/08/13 00:23:18;;;;;;;14.07;12.52;;;;;;;;;;5074225;28;20044;-79
2021/08/13 00:25:46;;;;;;;15.15;12.45;;;;;;;;;;5073763;28;20040;-78
2021/08/13 00:28:13;;;;;;;14.52;12.98;;;;;;;;;;5075320;28;20083;-79
2021/08/13 00:30:39;;;;;;;17.95;13.10;;;;;;;;;;5075276;28;20091;-79
2021/08/13 00:33:08;;;;;;;13.85;12.43;;;;;;;;;;5074660;28;20101;-79
2021/08/13 00:35:35;;;;;;;13.75;12.30;;;;;;;;;;5073811;28;20087;-79
2021/08/13 00:38:02;;;;;;;14.02;12.63;;;;;;;;;;5074383;28;20074;-79
2021/08/13 00:40:28;;;;;;;13.77;12.30;;;;;;;;;;5074704;28;20102;-79
2021/08/13 00:42:57;;;;;;;13.68;11.88;;;;;;;;;;5074297;28;20079;-79
2021/08/13 00:45:23;;;;;;;14.82;13.38;;;;;;;;;;5073271;28;20049;-79
2021/08/13 00:47:50;;;;;;;14.05;12.43;;;;;;;;;;5074061;28;20486;-79
2021/08/13 00:50:17;;;;;;;12.77;11.48;;;;;;;;;;5080311;28;20072;-80
2021/08/13 00:52:44;;;;;;;13.45;12.15;;;;;;;;;;5080481;28;20054;-80
2021/08/13 00:55:11;;;;;;;16.58;12.05;;;;;;;;;;5079547;28;20079;-80
2021/08/13 00:57:39;;;;;;;12.48;11.10;;;;;;;;;;5079330;28;20044;-80
2021/08/13 01:00:08;;;;;;;13.45;10.93;;;;;;;;;;5079002;28;20048;-80
2021/08/13 01:02:38;;;;;;;12.52;11.07;;;;;;;;;;5093674;28;20098;-80
2021/08/13 01:05:06;;;;;;;12.10;10.80;;;;;;;;;;5098831;28;20046;-80
2021/08/13 01:07:33;;;;;;;13.38;11.25;;;;;;;;;;5099073;28;20044;-80
2021/08/13 01:10:00;;;;;;;11.70;10.60;;;;;;;;;;5099545;28;20048;-80
2021/08/13 01:12:31;;;;;;;13.02;11.15;;;;;;;;;;5098889;28;20047;-79
2021/08/13 01:15:05;;;;;;;19.10;17.25;;;;;;;;;;5098542;28;20052;-80
2021/08/13 01:17:39;;;;;;;15.88;14.32;;;;;;;;;;5094364;28;20143;-77
2021/08/13 01:20:11;;;;;;;16.42;14.93;;;;;;;;;;5092543;28;20522;-77
2021/08/13 01:22:45;;;;;;;14.10;12.68;;;;;;;;;;5092559;28;20044;-77
2021/08/13 01:25:15;;;;;;;14.13;12.73;;;;;;;;;;5091975;28;20493;-78
2021/08/13 01:27:47;;;;;;;12.45;11.15;;;;;;;;;;5092629;28;20086;-78
2021/08/13 01:30:16;;;;;;;12.13;10.88;;;;;;;;;;5092667;28;20086;-77
2021/08/13 01:32:50;;;;;;;11.45;10.18;;;;;;;;;;5092480;28;20591;-78
2021/08/13 01:35:21;;;;;;;11.70;10.50;;;;;;;;;;5092179;28;20052;-78
2021/08/13 01:37:51;;;;;;;11.50;10.40;;;;;;;;;;5096368;28;20084;-78
2021/08/13 01:40:19;;;;;;;12.23;9.73;;;;;;;;;;5096368;28;20082;-78
2021/08/13 01:42:48;;;;;;;12.20;10.38;;;;;;;;;;5097909;28;20048;-79
2021/08/13 01:45:24;;;;;;;10.65;9.60;;;;;;;;;;5100537;28;20093;-80
2021/08/13 01:51:17;;;;;;;11.80;10.60;;;;;;;;;;5097538;28;20043;-80
2021/08/13 01:53:45;;;;;;;12.50;10.98;;;;;;;;;;5101209;28;20048;-80
2021/08/13 01:56:12;;;;;;;11.43;10.27;;;;;;;;;;5102711;28;20093;-80
2021/08/13 01:58:41;;;;;;;11.13;9.93;;;;;;;;;;5102985;28;20468;-80
2021/08/13 02:01:08;;;;;;;11.23;10.02;;;;;;;;;;5100164;28;20169;-78
2021/08/13 02:03:35;;;;;;;13.32;10.38;;;;;;;;;;5095665;28;20539;-79
2021/08/13 02:06:02;;;;;;;11.18;10.05;;;;;;;;;;5097394;28;20079;-79
2021/08/13 02:08:30;;;;;;;12.52;10.07;;;;;;;;;;5096141;28;20084;-79
2021/08/13 02:10:58;;;;;;;12.40;10.35;;;;;;;;;;5098154;28;20066;-80
2021/08/13 02:13:25;;;;;;;11.90;10.70;;;;;;;;;;5101984;28;20048;-78
2021/08/13 02:15:58;;;;;;;12.27;10.55;;;;;;;;;;5097589;28;20398;-80
2021/08/13 02:18:26;;;;;;;11.15;9.98;;;;;;;;;;5101226;28;20102;-80
2021/08/13 02:24:17;;;;;;;11.70;10.45;;;;;;;;;;5097118;28;20166;-80
2021/08/13 02:26:44;;;;;;;11.97;10.40;;;;;;;;;;5102968;28;20101;-80
2021/08/13 02:29:11;;;;;;;11.50;10.10;;;;;;;;;;5101784;28;20051;-79
2021/08/13 02:31:38;;;;;;;11.48;9.73;;;;;;;;;;5103943;28;20126;-80
2021/08/13 02:34:05;;;;;;;10.63;9.55;;;;;;;;;;5097758;28;20127;-79
2021/08/13 02:36:37;;;;;;;10.65;9.52;;;;;;;;;;5096672;28;20127;-80
2021/08/13 02:39:10;;;;;;;11.48;10.20;;;;;;;;;;5099152;28;20044;-80
2021/08/13 02:41:40;;;;;;;11.18;10.07;;;;;;;;;;5096108;28;20051;-78
2021/08/13 02:44:09;;;;;;;11.68;9.63;;;;;;;;;;5098521;28;20090;-78
2021/08/13 02:46:40;;;;;;;12.93;11.55;;;;;;;;;;5099590;28;20079;-80
2021/08/13 02:49:12;;;;;;;13.27;12.00;;;;;;;;;;5095973;28;20127;-79
2021/08/13 02:51:41;;;;;;;16.20;14.65;;;;;;;;;;5096324;28;20442;-80
2021/08/13 02:54:09;;;;;;;12.52;11.23;;;;;;;;;;5099701;28;20054;-79
2021/08/13 02:56:40;;;;;;;12.63;11.43;;;;;;;;;;5096999;28;20074;-78
2021/08/13 02:59:09;;;;;;;12.20;11.10;;;;;;;;;;5096956;28;20040;-80
2021/08/13 03:01:39;;;;;;;12.20;11.10;;;;;;;;;;5099169;28;20071;-79
2021/08/13 03:04:10;;;;;;;12.02;10.70;;;;;;;;;;5098301;28;20067;-80
2021/08/13 03:06:42;;;;;;;16.40;11.15;;;;;;;;;;5094496;28;20094;-79
2021/08/13 03:09:09;;;;;;;11.70;10.55;;;;;;;;;;5099433;28;20044;-79
2021/08/13 03:11:40;;;;;;;10.68;9.65;;;;;;;;;;5095603;28;20093;-81
2021/08/13 03:14:09;;;;;;;13.77;12.35;;;;;;;;;;5097125;28;20142;-78
2021/08/13 03:16:36;;;;;;;11.65;10.05;;;;;;;;;;5094930;28;20084;-78
2021/08/13 03:19:04;;;;;;;11.05;9.95;;;;;;;;;;5097642;28;20127;-79
2021/08/13 03:21:31;;;;;;;12.75;10.82;;;;;;;;;;5096152;28;20075;-79
2021/08/13 03:23:59;;;;;;;11.20;10.05;;;;;;;;;;5098918;28;20048;-79
2021/08/13 03:26:26;;;;;;;11.20;10.18;;;;;;;;;;5099824;28;20079;-80
2021/08/13 03:28:55;;;;;;;11.98;10.07;;;;;;;;;;5096914;28;20421;-79
2021/08/13 03:31:35;;;;;;;11.20;9.88;;;;;;;;;;5102337;28;20119;-79
2021/08/13 03:34:03;;;;;;;12.20;10.93;;;;;;;;;;5096001;28;20080;-78
2021/08/13 03:36:30;;;;;;;11.27;10.07;;;;;;;;;;5099799;28;20079;-80
2021/08/13 03:38:57;;;;;;;12.43;11.13;;;;;;;;;;5101224;28;20040;-79
2021/08/13 03:41:24;;;;;;;11.77;10.52;;;;;;;;;;5098252;28;20081;-79
2021/08/13 03:43:51;;;;;;;11.25;9.77;;;;;;;;;;5100642;28;20191;-80
2021/08/13 03:49:43;;;;;;;11.50;10.40;;;;;;;;;;5055492;28;20059;-80
2021/08/13 03:52:09;;;;;;;11.32;10.13;;;;;;;;;;5098916;28;20044;-80
2021/08/13 03:54:36;;;;;;;10.60;9.40;;;;;;;;;;5098168;28;20077;-79
2021/08/13 03:57:03;;;;;;;10.43;9.38;;;;;;;;;;5099631;28;20055;-79
2021/08/13 03:59:30;;;;;;;10.68;9.57;;;;;;;;;;5097786;28;20127;-80
2021/08/13 04:05:19;;;;;;;10.43;9.13;;;;;;;;;;5071256;28;20048;-78
2021/08/13 04:07:48;;;;;;;10.63;8.75;;;;;;;;;;5076289;28;20679;-77
2021/08/13 04:10:15;;;;;;;10.15;8.93;;;;;;;;;;5075952;28;20044;-79
2021/08/13 04:12:42;;;;;;;12.90;10.10;;;;;;;;;;5077167;28;20048;-78
2021/08/13 04:15:09;;;;;;;11.65;9.48;;;;;;;;;;5075288;28;20044;-77
2021/08/13 04:17:36;;;;;;;11.35;9.80;;;;;;;;;;5083414;28;20048;-80
2021/08/13 04:20:03;;;;;;;10.77;9.63;;;;;;;;;;5084729;28;20082;-78
2021/08/13 04:22:31;;;;;;;11.13;10.00;;;;;;;;;;5082839;28;20052;-78
2021/08/13 04:24:58;;;;;;;11.88;10.52;;;;;;;;;;5088238;28;20074;-81
2021/08/13 04:27:25;;;;;;;10.25;9.15;;;;;;;;;;5083339;28;20555;-80
2021/08/13 04:29:52;;;;;;;11.25;9.38;;;;;;;;;;5079601;28;20564;-79
2021/08/13 04:32:31;;;;;;;11.75;9.43;;;;;;;;;;5077869;28;20571;-80
2021/08/13 04:34:58;;;;;;;10.43;9.43;;;;;;;;;;5073859;28;20048;-78
2021/08/13 04:37:25;;;;;;;11.25;10.05;;;;;;;;;;5073862;28;20052;-77
2021/08/13 04:39:53;;;;;;;9.57;8.60;;;;;;;;;;5072775;28;20049;-79
2021/08/13 04:42:20;;;;;;;11.35;9.45;;;;;;;;;;5085529;28;20044;-79
2021/08/13 04:44:47;;;;;;;11.25;9.02;;;;;;;;;;5077705;28;20496;-77
2021/08/13 04:47:13;;;;;;;10.82;9.63;;;;;;;;;;5074508;28;20040;-79
2021/08/13 04:49:40;;;;;;;11.30;9.55;;;;;;;;;;5074302;28;20048;-81
2021/08/13 04:52:07;;;;;;;11.10;9.52;;;;;;;;;;5077946;28;20485;-79
2021/08/13 04:54:34;;;;;;;11.05;9.93;;;;;;;;;;5073163;28;20074;-80
2021/08/13 04:57:02;;;;;;;10.65;9.40;;;;;;;;;;5073419;28;20053;-79
2021/08/13 04:59:29;;;;;;;11.00;9.82;;;;;;;;;;5076840;28;20452;-80
2021/08/13 05:01:55;;;;;;;10.10;8.98;;;;;;;;;;5084927;28;20048;-78
2021/08/13 05:04:22;;;;;;;10.40;9.30;;;;;;;;;;5095219;28;20315;-78
2021/08/13 05:06:49;;;;;;;9.52;8.50;;;;;;;;;;5095225;28;20101;-78
2021/08/13 05:09:16;;;;;;;13.23;11.32;;;;;;;;;;5093184;28;20048;-78
2021/08/13 05:11:44;;;;;;;10.85;9.82;;;;;;;;;;5092414;28;20056;-79
2021/08/13 05:14:12;;;;;;;10.48;9.43;;;;;;;;;;5094739;28;20097;-82
2021/08/13 05:16:39;;;;;;;10.30;9.25;;;;;;;;;;5093445;28;20390;-79
2021/08/13 05:19:06;;;;;;;10.77;9.18;;;;;;;;;;5095253;28;20044;-82
2021/08/13 05:21:37;;;;;;;10.57;9.30;;;;;;;;;;5099074;28;20052;-81
2021/08/13 05:24:04;;;;;;;11.50;9.85;;;;;;;;;;5097936;28;20068;-81
2021/08/13 05:26:31;;;;;;;10.95;9.93;;;;;;;;;;5093153;28;20090;-79
2021/08/13 05:28:58;;;;;;;11.73;9.70;;;;;;;;;;5092466;28;20459;-79
2021/08/13 05:31:26;;;;;;;11.75;9.68;;;;;;;;;;5095169;28;20040;-78
2021/08/13 05:33:52;;;;;;;13.07;9.75;;;;;;;;;;5093480;28;20082;-81
2021/08/13 05:36:19;;;;;;;12.13;9.60;;;;;;;;;;5096419;28;20044;-80
2021/08/13 05:38:46;;;;;;;9.93;8.93;;;;;;;;;;5095325;28;20044;-80
2021/08/13 05:41:13;;;;;;;12.10;9.65;;;;;;;;;;5093347;28;20459;-79
2021/08/13 05:43:39;;;;;;;10.48;8.85;;;;;;;;;;5097380;28;20056;-81
2021/08/13 05:46:06;;;;;;;15.50;9.60;;;;;;;;;;5096933;28;20044;-79
2021/08/13 05:48:34;;;;;;;9.52;8.48;;;;;;;;;;5111555;28;20078;-79
2021/08/13 05:51:04;;;;;;;13.45;9.18;;;;;;;;;;5115869;28;20024;-79
2021/08/13 05:53:31;;;;;;;11.25;8.75;;;;;;;;;;5102800;28;20041;-79
2021/08/13 05:55:57;;;;;;;10.57;9.15;;;;;;;;;;5099167;28;20554;-81
2021/08/13 05:58:24;;;;;;;11.20;8.88;;;;;;;;;;5100404;28;20098;-81
2021/08/13 06:00:51;;;;;;;10.40;9.27;;;;;;;;;;5099030;28;20093;-81
2021/08/13 06:03:17;;;;;;;11.43;8.98;;;;;;;;;;5099958;28;20109;-81
2021/08/13 06:05:46;;;;;;;9.70;8.45;;;;;;;;;;5097817;28;20071;-81
2021/08/13 06:08:12;;;;;;;9.93;8.70;;;;;;;;;;5099063;28;20102;-81
2021/08/13 06:10:39;;;;;;;9.13;8.07;;;;;;;;;;5096812;28;20083;-81
2021/08/13 06:13:06;;;;;;;11.45;9.13;;;;;;;;;;5096749;28;20513;-81
2021/08/13 06:15:33;;;;;;;9.90;7.93;;;;;;;;;;5095546;28;20078;-82
2021/08/13 06:17:59;;;;;;;9.55;7.38;;;;;;;;;;5095863;28;20378;-81
2021/08/13 06:20:26;;;;;;;9.73;7.55;;;;;;;;;;5095796;28;20044;-81
2021/08/13 06:22:54;;;;;;;9.20;7.22;;;;;;;;;;5097927;28;20120;-81
2021/08/13 06:25:21;;;;;;;9.35;6.40;;;;;;;;;;5099362;28;20058;-82
2021/08/13 06:27:48;;;;;;;9.85;6.22;;;;;;;;;;5099863;28;20074;-81
2021/08/13 06:30:19;;;;;;;9.40;6.32;;;;;;;;;;5099978;28;20093;-81
2021/08/13 06:32:45;;;;;;;7.00;5.70;;;;;;;;;;5099854;28;20052;-81
2021/08/13 06:35:12;;;;;;;11.10;6.00;;;;;;;;;;5098412;28;20044;-81
2021/08/13 06:37:47;;;;;;;6.97;5.78;;;;;;;;;;5099646;28;20097;-81
2021/08/13 06:40:15;;;;;;;7.63;5.50;;;;;;;;;;5098484;28;20574;-81
2021/08/13 06:42:42;;;;;;;8.93;5.80;;;;;;;;;;5099234;28;20485;-80
2021/08/13 06:45:11;;;;;;;8.65;6.35;;;;;;;;;;5099389;28;20044;-81
2021/08/13 06:47:38;;;;;;;11.10;6.57;;;;;;;;;;5099518;28;20489;-81
2021/08/13 06:50:05;;;;;;;8.82;5.90;;;;;;;;;;5099380;28;20048;-80
2021/08/13 06:52:32;;;;;;;8.73;6.30;;;;;;;;;;5099574;28;20563;-81
2021/08/13 06:54:59;;;;;;;9.20;6.20;;;;;;;;;;5098667;28;20047;-80
2021/08/13 07:00:48;;;;;;;8.70;6.80;;;;;;;;;;5095505;28;20047;-81
2021/08/13 07:03:15;;;;;;;7.95;6.38;;;;;;;;;;5098826;28;20040;-80
2021/08/13 07:05:42;;;;;;;9.90;7.20;;;;;;;;;;5087016;28;20048;-80
2021/08/13 07:08:10;;;;;;;9.20;7.43;;;;;;;;;;5090266;28;20123;-80
2021/08/13 07:10:37;;;;;;;9.55;7.25;;;;;;;;;;5095452;28;20101;-80
2021/08/13 07:13:04;;;;;;;9.40;7.15;;;;;;;;;;5082943;28;20486;-80
2021/08/13 07:15:31;;;;;;;7.88;6.38;;;;;;;;;;5073196;28;20140;-78
2021/08/13 07:17:59;;;;;;;9.85;6.47;;;;;;;;;;5072566;28;20044;-80
2021/08/13 07:20:26;;;;;;;8.07;6.10;;;;;;;;;;5073564;28;20044;-80
2021/08/13 07:22:53;;;;;;;8.77;6.40;;;;;;;;;;5075632;28;20117;-79
2021/08/13 07:25:20;;;;;;;10.90;6.45;;;;;;;;;;5080925;28;20131;-79
2021/08/13 07:27:47;;;;;;;8.55;6.72;;;;;;;;;;5080925;28;20122;-79
2021/08/13 07:30:15;;;;;;;10.93;7.75;;;;;;;;;;5077296;28;20505;-79
2021/08/13 07:32:42;;;;;;;11.32;7.13;;;;;;;;;;5076944;28;20049;-78
2021/08/13 07:35:11;;;;;;;9.18;6.47;;;;;;;;;;5075223;28;20071;-80
2021/08/13 07:37:37;;;;;;;12.25;8.02;;;;;;;;;;5076459;28;20053;-80
2021/08/13 07:40:18;;;;;;;10.00;6.20;;;;;;;;;;5088141;28;20048;-79
2021/08/13 07:49:29;;;;;;;9.40;7.80;;;;;;;;;;5092739;28;20047;-79
2021/08/13 07:57:11;;;;;;;10.55;7.50;;;;;;;;;;5169555;22;20062;-70
2021/08/13 07:59:38;;;;;;;9.52;6.40;;;;;;;;;;5132141;27;20085;-72
2021/08/13 08:02:05;;;;;;;8.98;6.07;;;;;;;;;;5121832;27;20079;-71
2021/08/13 08:04:33;;;;;;;8.75;6.25;;;;;;;;;;5111716;28;20137;-72
2021/08/13 08:06:59;;;;;;;9.35;6.38;;;;;;;;;;5110948;28;20073;-71
2021/08/13 08:09:26;;;;;;;9.20;5.80;;;;;;;;;;5111757;28;20079;-71
2021/08/13 08:11:54;;;;;;;7.88;6.43;;;;;;;;;;5113487;27;20079;-72
2021/08/13 08:14:22;;;;;;;7.72;6.50;;;;;;;;;;5132305;27;20479;-71
2021/08/13 08:16:49;;;;;;;9.88;6.22;;;;;;;;;;5131867;27;20555;-72
2021/08/13 08:19:16;;;;;;;9.05;6.25;;;;;;;;;;5132653;27;20047;-74
2021/08/13 08:21:43;;;;;;;9.23;6.47;;;;;;;;;;5132884;27;20047;-72
2021/08/13 08:24:12;;;;;;;8.55;6.53;;;;;;;;;;5132327;27;20216;-72
2021/08/13 08:26:38;;;;;;;8.18;6.03;;;;;;;;;;5132707;27;20040;-71
2021/08/13 08:29:08;;;;;;;11.23;6.47;;;;;;;;;;5133546;27;20085;-70
2021/08/13 08:31:36;;;;;;;8.48;6.85;;;;;;;;;;5132585;27;20490;-72
2021/08/13 08:34:03;;;;;;;10.52;7.10;;;;;;;;;;5132148;27;20113;-71
2021/08/13 08:36:30;;;;;;;8.13;6.13;;;;;;;;;;5131534;27;20067;-71
2021/08/13 08:38:56;;;;;;;8.02;6.13;;;;;;;;;;5131801;27;20523;-71
2021/08/13 08:41:26;;;;;;;7.45;6.20;;;;;;;;;;5132031;27;20136;-70
2021/08/13 08:43:52;;;;;;;7.43;5.85;;;;;;;;;;5131597;27;20082;-71
2021/08/13 08:46:20;;;;;;;7.00;5.88;;;;;;;;;;5130684;27;20078;-71
2021/08/13 08:48:53;;;;;;;7.72;5.72;;;;;;;;;;5131633;27;20082;-73
2021/08/13 08:51:20;;;;;;;7.63;5.78;;;;;;;;;;5131350;27;20058;-69
2021/08/13 08:53:50;;;;;;;8.10;5.60;;;;;;;;;;5131176;27;20123;-71
2021/08/13 08:56:18;;;;;;;9.57;6.35;;;;;;;;;;5130470;27;20054;-71
2021/08/13 08:58:46;;;;;;;11.80;6.75;;;;;;;;;;5131163;27;20134;-72
2021/08/13 09:01:13;;;;;;;9.30;5.88;;;;;;;;;;5128621;27;20086;-72
2021/08/13 09:03:41;;;;;;;9.60;6.22;;;;;;;;;;5110574;28;20135;-72
2021/08/13 09:06:09;;;;;;;8.07;5.93;;;;;;;;;;5110681;28;20043;-71
2021/08/13 09:08:36;;;;;;;8.32;5.60;;;;;;;;;;5110569;28;20101;-71
2021/08/13 09:11:03;;;;;;;10.45;6.13;;;;;;;;;;5110949;28;20075;-70
2021/08/13 09:13:30;;;;;;;8.13;5.88;;;;;;;;;;5110389;28;20087;-70
2021/08/13 09:16:10;;;;;;;7.50;6.32;;;;;;;;;;5109640;28;20131;-71
2021/08/13 09:18:37;;;;;;;10.10;5.90;;;;;;;;;;5110499;28;20048;-71
2021/08/13 09:21:03;;;;;;;8.65;5.50;;;;;;;;;;5110736;28;20130;-71
2021/08/13 09:23:39;;;;;;;7.30;5.65;;;;;;;;;;5110926;28;20082;-71
2021/08/13 09:26:09;;;;;;;6.93;5.63;;;;;;;;;;5109679;28;20104;-75
2021/08/13 09:28:44;;;;;;;8.40;5.82;;;;;;;;;;5111134;28;20055;-74
2021/08/13 09:31:14;;;;;;;7.35;5.63;;;;;;;;;;5110503;28;20051;-74
2021/08/13 09:33:42;;;;;;;9.02;5.60;;;;;;;;;;5110703;28;20071;-74
2021/08/13 09:36:08;;;;;;;7.13;5.38;;;;;;;;;;5109621;28;20672;-70
2021/08/13 09:38:37;;;;;;;8.68;5.43;;;;;;;;;;5110317;28;20120;-71
2021/08/13 09:41:08;;;;;;;7.07;5.30;;;;;;;;;;5110293;28;20515;-71
2021/08/13 09:43:53;;;;;;;6.97;4.97;;;;;;;;;;5110259;28;20496;-70
2021/08/13 09:46:20;;;;;;;6.80;4.75;;;;;;;;;;5109559;28;20075;-70
2021/08/13 09:48:49;;;;;;;7.75;5.28;;;;;;;;;;5109816;28;20075;-71
2021/08/13 09:51:32;;;;;;;8.43;5.45;;;;;;;;;;5110204;28;20044;-70
2021/08/13 09:54:04;;;;;;;6.60;4.63;;;;;;;;;;5110263;28;20039;-70
2021/08/13 09:56:32;;;;;;;7.32;4.93;;;;;;;;;;5109506;28;20040;-70
2021/08/13 09:59:16;;;;;;;8.65;4.47;;;;;;;;;;5114045;28;20055;-70
2021/08/13 10:01:47;;;;;;;9.05;6.68;;;;;;;;;;5114401;28;20087;-70
2021/08/13 10:04:18;;;;;;;6.30;4.57;;;;;;;;;;5113869;27;20044;-71
2021/08/13 10:06:55;;;;;;;7.97;5.45;;;;;;;;;;5113281;28;20044;-70
2021/08/13 10:09:26;;;;;;;7.20;5.03;;;;;;;;;;5114300;28;20079;-71
2021/08/13 10:11:59;;;;;;;7.63;5.03;;;;;;;;;;5115966;27;20086;-70
2021/08/13 10:14:32;;;;;;;8.27;5.75;;;;;;;;;;5134751;27;20047;-71
2021/08/13 10:17:12;;;;;;;7.32;4.93;;;;;;;;;;5133678;27;20054;-71
2021/08/13 10:19:39;;;;;;;;;;;;;;;;;;5134996;27;20103;-71
2021/08/13 10:22:07;;;;;;;7.35;4.78;;;;;;;;;;5134387;27;20432;-71
2021/08/13 10:24:43;;;;;;;8.05;5.07;;;;;;;;;;5134083;27;20039;-70
2021/08/13 10:27:10;;;;;;;7.80;4.47;;;;;;;;;;5133933;27;20039;-71
2021/08/13 10:29:37;;;;;;;6.78;4.90;;;;;;;;;;5134366;27;20039;-70
2021/08/13 10:32:05;;;;;;;5.65;3.78;;;;;;;;;;5134111;27;20504;-74
2021/08/13 10:34:34;;;;;;;6.88;4.05;;;;;;;;;;5134289;27;20078;-71
2021/08/13 10:37:10;;;;;;;8.55;3.95;;;;;;;;;;5133527;27;20130;-71
2021/08/13 10:39:41;;;;;;;6.05;3.90;;;;;;;;;;5134357;27;20714;-71
2021/08/13 10:42:10;;;;;;;7.60;4.00;;;;;;;;;;5134268;27;20462;-70
2021/08/13 10:44:44;;;;;;;9.15;4.60;;;;;;;;;;5134600;27;20071;-75
2021/08/13 10:47:16;;;;;;;8.23;4.90;;;;;;;;;;5134134;27;20504;-74
2021/08/13 10:49:49;;;;;;;6.95;3.72;;;;;;;;;;5135453;27;20106;-75
2021/08/13 10:52:16;;;;;;;6.13;4.05;;;;;;;;;;5134723;27;20097;-72
2021/08/13 10:54:49;;;;;;;6.43;3.83;;;;;;;;;;5133805;27;20483;-70
2021/08/13 10:57:36;;;;;;;8.30;5.22;;;;;;;;;;5132982;27;20557;-70
2021/08/13 11:00:12;;;;;;;8.00;4.40;;;;;;;;;;5132865;27;20085;-70
2021/08/13 11:02:38;;;;;;;5.72;3.85;;;;;;;;;;5118920;27;20043;-71
2021/08/13 11:05:05;;;;;;;6.35;3.88;;;;;;;;;;5112264;28;20082;-72
2021/08/13 11:07:59;;;;;;;6.55;4.35;;;;;;;;;;5112663;28;20097;-71
2021/08/13 11:10:56;;;;;;;7.32;4.40;;;;;;;;;;5112844;28;20056;-70
2021/08/13 11:13:24;;;;;;;5.70;3.92;;;;;;;;;;5127454;27;20080;-71
2021/08/13 11:15:54;;;;;;;8.00;4.38;;;;;;;;;;5132506;27;20054;-70
2021/08/13 11:18:32;;;;;;;7.13;4.60;;;;;;;;;;5134528;27;20059;-71
2021/08/13 11:21:03;;;;;;;6.45;4.22;;;;;;;;;;5133295;27;20043;-71
2021/08/13 11:23:30;;;;;;;6.10;4.72;;;;;;;;;;5133102;27;20047;-71
2021/08/13 11:25:59;;;;;;;6.43;4.38;;;;;;;;;;5132793;27;20043;-69
2021/08/13 11:28:33;;;;;;;6.97;4.13;;;;;;;;;;5135189;27;20117;-70
2021/08/13 11:31:03;;;;;;;4.40;3.55;;;;;;;;;;5135074;27;20055;-71
2021/08/13 11:33:50;;;;;;;;;;;;;;;;;;5134555;27;20099;-71
2021/08/13 11:36:55;;;;;;;8.45;4.43;;;;;;;;;;5122588;27;19927;-70
2021/08/13 11:39:42;;;;;;;6.20;3.90;;;;;;;;;;5133990;27;20051;-70
2021/08/13 11:42:11;;;;;;;9.98;8.20;;;;;;;;;;5126915;27;20075;-70
2021/08/13 11:44:38;;;;;;;6.03;4.35;;;;;;;;;;5133377;27;20533;-71
2021/08/13 11:47:04;;;;;;;5.78;3.72;;;;;;;;;;5114872;27;20123;-71
2021/08/13 11:49:33;;;;;;;7.28;3.72;;;;;;;;;;5112847;28;20450;-71
2021/08/13 11:52:02;;;;;;;6.40;3.92;;;;;;;;;;5112716;28;20421;-71
2021/08/13 11:54:31;;;;;;;7.07;3.17;;;;;;;;;;5113437;28;20130;-70
2021/08/13 11:57:14;;;;;;;5.53;3.38;;;;;;;;;;5131592;27;20051;-71
2021/08/13 11:59:41;;;;;;;6.90;3.55;;;;;;;;;;5134781;27;20057;-72
2021/08/13 12:02:08;;;;;;;6.72;3.30;;;;;;;;;;5119537;27;20048;-71
2021/08/13 12:04:35;;;;;;;6.07;3.30;;;;;;;;;;5110478;28;20039;-71
2021/08/13 12:07:04;;;;;;;5.20;3.25;;;;;;;;;;5111516;28;20072;-71
2021/08/13 12:09:34;;;;;;;8.27;3.10;;;;;;;;;;5127024;27;20392;-71
2021/08/13 12:12:01;;;;;;;6.30;3.15;;;;;;;;;;5129441;27;20084;-71
2021/08/13 12:14:30;;;;;;;7.68;3.85;;;;;;;;;;5110299;28;20101;-70
2021/08/13 12:16:57;;;;;;;5.97;3.10;;;;;;;;;;5111379;28;20450;-71
2021/08/13 12:19:25;;;;;;;5.95;3.22;;;;;;;;;;5110917;28;20073;-70
2021/08/13 12:21:53;;;;;;;6.53;2.78;;;;;;;;;;5111385;28;20671;-71
2021/08/13 12:24:29;;;;;;;6.38;3.20;;;;;;;;;;5107874;27;20043;-70
2021/08/13 12:26:57;;;;;;;6.22;3.05;;;;;;;;;;5110638;28;20048;-72
2021/08/13 12:29:25;;;;;;;6.90;3.00;;;;;;;;;;5111373;28;20124;-70
2021/08/13 12:31:55;;;;;;;8.20;4.28;;;;;;;;;;5111339;28;20475;-70
2021/08/13 12:34:22;;;;;;;;;;;;;;;;;;5111692;28;20504;-71
2021/08/13 12:37:04;;;;;;;9.23;3.65;;;;;;;;;;5111004;28;19923;-70
2021/08/13 12:39:31;;;;;;;6.35;3.20;;;;;;;;;;5111689;28;20050;-71
2021/08/13 12:41:58;;;;;;;5.63;3.28;;;;;;;;;;5111139;28;20096;-71
2021/08/13 12:44:25;;;;;;;9.52;3.10;;;;;;;;;;5111582;28;20043;-70
2021/08/13 12:46:52;;;;;;;6.35;3.20;;;;;;;;;;5110845;28;20043;-71
2021/08/13 12:49:22;;;;;;;6.32;2.95;;;;;;;;;;5111163;28;20089;-71
2021/08/13 12:51:49;;;;;;;6.40;3.05;;;;;;;;;;5111381;28;20063;-71
2021/08/13 12:54:33;;;;;;;8.45;2.85;;;;;;;;;;5110842;28;20043;-72
2021/08/13 12:57:01;;;;;;;7.43;2.65;;;;;;;;;;5111045;28;20071;-71
2021/08/13 12:59:32;;;;;;;5.75;3.00;;;;;;;;;;5111507;28;20187;-71
2021/08/13 13:02:00;;;;;;;4.75;2.70;;;;;;;;;;5129458;27;20050;-71
2021/08/13 13:04:39;;;;;;;6.95;2.97;;;;;;;;;;5152088;27;20047;-71
2021/08/13 13:07:07;;;;;;;5.35;2.58;;;;;;;;;;5151562;27;20077;-71
2021/08/13 13:09:34;;;;;;;7.78;2.80;;;;;;;;;;5152199;27;20464;-71
2021/08/13 13:12:15;;;;;;;6.68;3.00;;;;;;;;;;5146197;27;20043;-71
2021/08/13 13:14:43;;;;;;;7.00;2.70;;;;;;;;;;5111485;28;20096;-72
2021/08/13 13:17:11;;;;;;;6.93;2.60;;;;;;;;;;5111117;28;20074;-70
2021/08/13 13:19:40;;;;;;;6.35;3.22;;;;;;;;;;5111089;28;20052;-73
2021/08/13 13:22:21;;;;;;;8.53;3.17;;;;;;;;;;5110778;28;20051;-71
2021/08/13 13:25:15;;;;;;;8.82;2.65;;;;;;;;;;5111125;28;20043;-71
2021/08/13 13:27:52;;;;;;;7.18;3.00;;;;;;;;;;5110475;28;20044;-71
2021/08/13 13:30:38;;;;;;;8.02;3.10;;;;;;;;;;5111028;28;20039;-71
2021/08/13 13:33:08;;;;;;;7.53;3.08;;;;;;;;;;5115245;28;20055;-70
2021/08/13 13:35:37;;;;;;;;;;;;;;;;;;5115605;28;20043;-71
2021/08/13 13:38:05;;;;;;;6.40;3.42;;;;;;;;;;5115506;28;20415;-71
2021/08/13 13:40:33;;;;;;;7.57;2.85;;;;;;;;;;5114686;28;20048;-71
2021/08/13 13:43:00;;;;;;;6.30;2.92;;;;;;;;;;5114838;28;20040;-71
2021/08/13 13:45:28;;;;;;;6.78;2.80;;;;;;;;;;5113951;28;20504;-72
2021/08/13 13:47:56;;;;;;;7.07;2.90;;;;;;;;;;5114795;28;20047;-71
2021/08/13 13:50:24;;;;;;;7.20;3.20;;;;;;;;;;5115002;28;20097;-72
2021/08/13 13:52:52;;;;;;;7.60;3.00;;;;;;;;;;5114404;28;20132;-71
2021/08/13 13:55:19;;;;;;;8.98;3.45;;;;;;;;;;5114064;28;20105;-71
2021/08/13 13:57:46;;;;;;;7.40;3.15;;;;;;;;;;5114630;28;20048;-71
2021/08/13 14:00:15;;;;;;;8.15;3.53;;;;;;;;;;5114740;28;20039;-71
2021/08/13 14:02:43;;;;;;;8.83;3.17;;;;;;;;;;5114569;28;20124;-71
2021/08/13 14:05:12;;;;;;;9.38;3.38;;;;;;;;;;5114019;28;20109;-71
2021/08/13 14:07:40;;;;;;;8.73;3.43;;;;;;;;;;5114279;28;20047;-71
2021/08/13 14:10:11;;;;;;;9.32;3.70;;;;;;;;;;5114287;28;20047;-71
2021/08/13 14:12:38;;;;;;;7.38;3.47;;;;;;;;;;5114210;28;20096;-71
2021/08/13 14:15:06;;;;;;;8.00;3.53;;;;;;;;;;5113876;28;20454;-71
2021/08/13 14:17:33;;;;;;;7.40;3.22;;;;;;;;;;5113846;28;20438;-72
2021/08/13 14:20:00;;;;;;;7.05;3.50;;;;;;;;;;5114149;28;20051;-71
2021/08/13 14:22:26;;;;;;;8.27;3.65;;;;;;;;;;5113960;28;20120;-71
2021/08/13 14:24:53;;;;;;;12.10;3.33;;;;;;;;;;5120476;22;20499;-75
2021/08/13 14:27:21;;;;;;;14.02;6.30;;;;;;;;;;5092928;28;20052;-75
2021/08/13 14:29:48;;;;;;;6.85;3.13;;;;;;;;;;5092941;28;20048;-75
2021/08/13 14:32:14;;;;;;;10.25;4.63;;;;;;;;;;5093130;28;20444;-76
2021/08/13 14:34:41;;;;;;;6.78;3.25;;;;;;;;;;5093171;28;20052;-76
2021/08/13 14:37:08;;;;;;;10.18;3.42;;;;;;;;;;5092887;28;20044;-76
2021/08/13 14:39:35;;;;;;;11.98;4.30;;;;;;;;;;5092996;28;20605;-76
2021/08/13 14:42:03;;;;;;;10.57;3.80;;;;;;;;;;5092226;28;20666;-75
2021/08/13 14:44:31;;;;;;;10.27;4.03;;;;;;;;;;5092138;28;21872;-75
2021/08/13 14:46:58;;;;;;;8.15;3.20;;;;;;;;;;5091897;28;20044;-75
2021/08/13 14:49:25;;;;;;;13.50;3.72;;;;;;;;;;5092620;28;20044;-76
2021/08/13 14:51:51;;;;;;;11.52;3.35;;;;;;;;;;5092791;28;20048;-76
2021/08/13 14:54:19;;;;;;;8.13;3.47;;;;;;;;;;5093022;28;20204;-76
2021/08/13 14:56:45;;;;;;;12.32;3.75;;;;;;;;;;5091997;28;20051;-76
2021/08/13 14:59:12;;;;;;;12.20;4.13;;;;;;;;;;5092690;28;20181;-76
2021/08/13 15:01:41;;;;;;;9.48;3.72;;;;;;;;;;5086243;28;20057;-76
2021/08/13 15:04:10;;;;;;;11.50;3.78;;;;;;;;;;5072245;28;20045;-76
2021/08/13 15:06:37;;;;;;;9.77;3.30;;;;;;;;;;5071702;28;20048;-76
2021/08/13 15:09:04;;;;;;;10.93;4.20;;;;;;;;;;5072107;28;20567;-77
2021/08/13 15:11:31;;;;;;;12.23;3.92;;;;;;;;;;5072075;28;20110;-77
2021/08/13 15:13:58;;;;;;;10.02;3.58;;;;;;;;;;5091204;28;20117;-77
2021/08/13 15:16:25;;;;;;;10.38;3.47;;;;;;;;;;5093093;28;20471;-79